Time;durP1;ratioP1;P1;durP2;ratioP2;P2;SDS_P1;SDS_P2;PMS_P1;PMS_P2;Temp;Humidity;BMP_temperature;BMP_pressure;BME280_temperature;BME280_humidity;BME280_pressure;Samples;Min_cycle;Max_cycle;Signal;HPM_P1;HPM_P2
2023/10/18 00:01:25;;;;;;;19.27;8.45;;;6.10;99.90;;;;;;5069515;28;20040;-55
2023/10/18 00:03:54;;;;;;;15.23;7.47;;;6.10;99.90;;;;;;5068256;28;20492;-54
2023/10/18 00:06:22;;;;;;;16.77;7.97;;;6.10;99.90;;;;;;5069724;28;20043;-56
2023/10/18 00:08:57;;;;;;;21.92;8.73;;;6.00;99.90;;;;;;5070518;28;20090;-53
2023/10/18 00:11:25;;;;;;;19.98;8.95;;;6.10;99.90;;;;;;5069959;28;20045;-54
2023/10/18 00:13:52;;;;;;;16.48;7.60;;;6.00;99.90;;;;;;5068872;28;20469;-52
2023/10/18 00:16:19;;;;;;;17.95;8.32;;;6.00;99.90;;;;;;5069913;28;20036;-55
2023/10/18 00:18:45;;;;;;;19.52;8.55;;;6.00;99.90;;;;;;5069648;28;20040;-54
2023/10/18 00:21:12;;;;;;;22.05;8.88;;;5.90;99.90;;;;;;5072020;28;20055;-53
2023/10/18 00:23:39;;;;;;;16.02;8.25;;;6.00;99.90;;;;;;5070639;28;20047;-55
2023/10/18 00:26:09;;;;;;;19.70;8.70;;;6.00;99.90;;;;;;5072896;28;20472;-52
2023/10/18 00:28:38;;;;;;;20.95;9.55;;;5.90;99.90;;;;;;5071899;28;20537;-54
2023/10/18 00:31:10;;;;;;;21.60;9.18;;;5.80;99.90;;;;;;5072593;28;20043;-53
2023/10/18 00:33:38;;;;;;;22.30;9.85;;;5.80;99.90;;;;;;5073730;28;20071;-55
2023/10/18 00:36:04;;;;;;;19.98;9.05;;;5.90;99.90;;;;;;5072462;28;20072;-53
2023/10/18 00:38:29;;;;;;;21.27;9.90;;;5.90;99.90;;;;;;5073807;28;20084;-55
2023/10/18 00:40:56;;;;;;;23.02;9.68;;;5.90;99.90;;;;;;5073995;28;20080;-55
2023/10/18 00:43:25;;;;;;;23.80;10.30;;;5.80;99.90;;;;;;5073662;28;20036;-56
2023/10/18 00:45:52;;;;;;;22.90;9.90;;;5.70;99.90;;;;;;5073700;28;20079;-54
2023/10/18 00:48:21;;;;;;;22.30;9.90;;;5.70;99.90;;;;;;5073333;28;20090;-55
2023/10/18 00:50:52;;;;;;;23.10;10.18;;;5.70;99.90;;;;;;5073696;28;20536;-55
2023/10/18 00:53:22;;;;;;;24.10;10.55;;;5.70;99.90;;;;;;5073481;28;20112;-54
2023/10/18 00:55:53;;;;;;;22.48;10.80;;;5.70;99.90;;;;;;5071305;28;20260;-53
2023/10/18 00:58:22;;;;;;;23.15;10.40;;;5.70;99.90;;;;;;5072375;28;20036;-55
2023/10/18 01:00:50;;;;;;;26.00;11.30;;;5.60;99.90;;;;;;5073628;28;20455;-54
2023/10/18 01:03:35;;;;;;;22.45;10.93;;;5.80;99.90;;;;;;5055805;28;20150;-54
2023/10/18 01:06:16;;;;;;;26.85;11.27;;;5.80;99.90;;;;;;5073539;28;20036;-55
2023/10/18 01:08:42;;;;;;;27.60;20.67;;;5.80;99.90;;;;;;5072136;28;20043;-54
2023/10/18 01:11:10;;;;;;;29.83;12.52;;;6.00;99.90;;;;;;5073245;28;20036;-56
2023/10/18 01:13:42;;;;;;;23.92;10.15;;;5.70;99.90;;;;;;5072912;28;20507;-54
2023/10/18 01:16:20;;;;;;;27.98;12.20;;;5.70;99.90;;;;;;5072778;28;20079;-54
2023/10/18 01:18:47;;;;;;;27.05;12.73;;;5.60;99.90;;;;;;5072454;28;20124;-54
2023/10/18 01:21:19;;;;;;;27.20;12.50;;;5.70;99.90;;;;;;5073062;28;20109;-54
2023/10/18 01:23:54;;;;;;;26.02;12.20;;;5.60;99.90;;;;;;5072336;28;20094;-52
2023/10/18 01:26:21;;;;;;;28.98;13.38;;;5.80;99.90;;;;;;5072852;28;20037;-54
2023/10/18 01:28:48;;;;;;;27.27;12.75;;;5.70;99.90;;;;;;5072940;28;20111;-55
2023/10/18 01:31:14;;;;;;;25.35;12.38;;;5.70;99.90;;;;;;5072659;28;20660;-55
2023/10/18 01:33:45;;;;;;;28.40;14.57;;;5.70;99.90;;;;;;5071690;28;20036;-53
2023/10/18 01:36:14;;;;;;;28.38;14.52;;;5.70;99.90;;;;;;5071496;28;20115;-53
2023/10/18 01:38:55;;;;;;;32.20;14.30;;;5.60;99.90;;;;;;5071707;28;20087;-53
2023/10/18 01:41:34;;;;;;;32.58;13.45;;;5.60;99.90;;;;;;5072091;28;20036;-52
2023/10/18 01:44:07;;;;;;;35.50;26.55;;;5.50;99.90;;;;;;5070080;28;20036;-52
2023/10/18 01:46:34;;;;;;;33.67;14.55;;;5.80;99.90;;;;;;5072060;28;20093;-55
2023/10/18 01:49:00;;;;;;;29.30;13.27;;;5.80;99.90;;;;;;5071169;28;20043;-55
2023/10/18 01:51:28;;;;;;;33.72;14.45;;;5.60;99.90;;;;;;5071494;28;20044;-54
2023/10/18 01:54:01;;;;;;;36.20;14.02;;;5.80;99.90;;;;;;5069869;28;20039;-55
2023/10/18 01:56:27;;;;;;;29.13;13.70;;;5.80;99.90;;;;;;5072246;28;20044;-55
2023/10/18 01:58:53;;;;;;;34.50;15.52;;;5.60;99.90;;;;;;5071921;28;20074;-54
2023/10/18 02:01:19;;;;;;;34.08;15.25;;;5.70;99.90;;;;;;5072035;28;20107;-55
2023/10/18 02:03:45;;;;;;;30.27;14.55;;;5.70;99.90;;;;;;5072457;28;20115;-53
2023/10/18 02:06:14;;;;;;;34.88;14.68;;;5.60;99.90;;;;;;5072324;28;20471;-54
2023/10/18 02:08:41;;;;;;;35.42;16.65;;;5.70;99.90;;;;;;5071163;28;20051;-55
2023/10/18 02:11:08;;;;;;;34.38;15.25;;;5.50;99.90;;;;;;5071536;28;20131;-55
2023/10/18 02:13:36;;;;;;;30.33;14.23;;;5.60;99.90;;;;;;5071859;28;20040;-55
2023/10/18 02:16:06;;;;;;;33.90;14.95;;;5.50;99.90;;;;;;5071357;28;20078;-54
2023/10/18 02:18:32;;;;;;;37.47;16.13;;;5.60;99.90;;;;;;5071770;28;20036;-53
2023/10/18 02:20:58;;;;;;;36.45;15.55;;;5.60;99.90;;;;;;5070648;28;20086;-54
2023/10/18 02:23:25;;;;;;;33.90;15.55;;;5.70;99.90;;;;;;5071393;28;20045;-54
2023/10/18 02:25:52;;;;;;;33.80;16.40;;;5.50;99.90;;;;;;5071004;28;20041;-55
2023/10/18 02:28:22;;;;;;;34.10;15.70;;;5.60;99.90;;;;;;5071385;28;20047;-55
2023/10/18 02:30:55;;;;;;;40.28;16.77;;;5.50;99.90;;;;;;5071519;28;20538;-56
2023/10/18 02:33:24;;;;;;;33.13;16.03;;;5.90;99.90;;;;;;5071428;28;20041;-55
2023/10/18 02:35:50;;;;;;;33.25;15.75;;;5.70;99.90;;;;;;5069469;28;20040;-53
2023/10/18 02:38:18;;;;;;;32.88;16.02;;;5.70;99.90;;;;;;5068578;28;20045;-55
2023/10/18 02:40:44;;;;;;;37.25;16.65;;;5.60;99.90;;;;;;5070359;28;20063;-56
2023/10/18 02:43:14;;;;;;;36.45;16.95;;;5.70;99.90;;;;;;5070911;28;20035;-53
2023/10/18 02:45:42;;;;;;;34.80;16.98;;;5.70;99.90;;;;;;5071757;28;20033;-52
2023/10/18 02:48:14;;;;;;;40.78;16.35;;;5.50;99.90;;;;;;5070209;28;20154;-54
2023/10/18 02:50:40;;;;;;;33.85;15.63;;;5.60;99.90;;;;;;5071166;28;20083;-55
2023/10/18 02:53:06;;;;;;;36.35;16.65;;;5.60;99.90;;;;;;5071381;28;20043;-54
2023/10/18 02:55:34;;;;;;;37.85;17.52;;;5.70;99.90;;;;;;5071156;28;20054;-52
2023/10/18 02:57:59;;;;;;;34.40;17.30;;;5.50;99.90;;;;;;5069587;28;20041;-56
2023/10/18 03:00:27;;;;;;;40.40;17.77;;;5.60;99.90;;;;;;5069742;28;20415;-55
2023/10/18 03:02:54;;;;;;;41.47;30.80;;;5.60;99.90;;;;;;5071150;28;20408;-55
2023/10/18 03:05:20;;;;;;;38.70;15.98;;;5.60;99.90;;;;;;5071368;28;20111;-53
2023/10/18 03:07:46;;;;;;;36.55;17.55;;;5.50;99.90;;;;;;5070365;28;20178;-56
2023/10/18 03:10:13;;;;;;;37.00;17.48;;;5.40;99.90;;;;;;5069332;28;20165;-55
2023/10/18 03:12:44;;;;;;;39.55;17.05;;;5.50;99.90;;;;;;5070211;28;20074;-55
2023/10/18 03:15:17;;;;;;;40.90;18.55;;;5.60;99.90;;;;;;5069319;28;20131;-55
2023/10/18 03:17:43;;;;;;;43.47;18.63;;;5.50;99.90;;;;;;5070332;28;20078;-55
2023/10/18 03:20:21;;;;;;;43.95;18.35;;;5.60;99.90;;;;;;5070978;28;20456;-52
2023/10/18 03:22:49;;;;;;;38.25;18.08;;;5.60;99.90;;;;;;5068045;28;20036;-53
2023/10/18 03:25:26;;;;;;;38.35;18.08;;;5.40;99.90;;;;;;5070067;28;20662;-54
2023/10/18 03:27:57;;;;;;;36.08;17.52;;;5.40;99.90;;;;;;5070441;28;20138;-55
2023/10/18 03:30:39;;;;;;;39.45;16.73;;;5.50;99.90;;;;;;5069833;28;20032;-56
2023/10/18 03:33:07;;;;;;;45.03;18.35;;;5.40;99.90;;;;;;5069060;28;20032;-55
2023/10/18 03:35:37;;;;;;;39.60;17.73;;;5.50;99.90;;;;;;5069026;28;20089;-54
2023/10/18 03:38:05;;;;;;;39.70;18.20;;;5.50;99.90;;;;;;5070132;28;20080;-56
2023/10/18 03:40:36;;;;;;;35.95;16.38;;;5.40;99.90;;;;;;5070231;28;20056;-55
2023/10/18 03:43:09;;;;;;;36.58;17.70;;;5.40;99.90;;;;;;5070719;28;20083;-53
2023/10/18 03:48:26;;;;;;;40.83;17.00;;;5.40;99.90;;;;;;5069169;28;20083;-55
2023/10/18 03:51:00;;;;;;;39.05;17.20;;;5.70;99.90;;;;;;5071121;28;20098;-53
2023/10/18 03:53:27;;;;;;;39.22;17.75;;;5.60;99.90;;;;;;5071347;28;20073;-54
2023/10/18 03:55:55;;;;;;;37.65;17.15;;;5.40;99.90;;;;;;5073821;28;20068;-55
2023/10/18 03:58:26;;;;;;;45.50;19.10;;;5.30;99.90;;;;;;5072125;28;20044;-54
2023/10/18 04:00:56;;;;;;;39.53;18.30;;;5.50;99.90;;;;;;5074463;28;20040;-53
2023/10/18 04:03:27;;;;;;;39.25;18.92;;;5.70;99.90;;;;;;5072867;28;20062;-55
2023/10/18 04:05:54;;;;;;;39.92;17.10;;;5.50;99.90;;;;;;5073227;28;20132;-55
2023/10/18 04:08:20;;;;;;;43.70;18.63;;;5.50;99.90;;;;;;5072509;28;20040;-54
2023/10/18 04:10:59;;;;;;;39.47;18.55;;;5.40;99.90;;;;;;5074168;28;20391;-55
2023/10/18 04:13:27;;;;;;;40.53;18.35;;;5.50;99.90;;;;;;5073863;28;20095;-55
2023/10/18 04:16:00;;;;;;;47.33;35.13;;;5.50;99.90;;;;;;5072934;28;20090;-54
2023/10/18 04:18:26;;;;;;;40.83;17.20;;;5.40;99.90;;;;;;5073818;28;20047;-55
2023/10/18 04:20:52;;;;;;;44.40;18.63;;;5.30;99.90;;;;;;5073814;28;20112;-53
2023/10/18 04:23:19;;;;;;;43.13;16.95;;;5.50;99.90;;;;;;5073990;28;20127;-55
2023/10/18 04:26:03;;;;;;;43.88;19.38;;;5.30;99.90;;;;;;5073416;28;20484;-55
2023/10/18 04:28:30;;;;;;;39.35;18.60;;;5.50;99.90;;;;;;5073639;28;20040;-54
2023/10/18 04:31:00;;;;;;;38.72;18.02;;;5.50;99.90;;;;;;5074101;28;20080;-52
2023/10/18 04:33:41;;;;;;;41.70;19.30;;;5.30;99.90;;;;;;5073122;28;20043;-54
2023/10/18 04:36:14;;;;;;;39.38;19.33;;;5.40;99.90;;;;;;5073938;28;20136;-55
2023/10/18 04:38:45;;;;;;;41.42;18.25;;;5.60;99.90;;;;;;5073180;28;20048;-55
2023/10/18 04:41:23;;;;;;;43.45;18.63;;;5.30;99.90;;;;;;5073194;28;20552;-54
2023/10/18 04:46:29;;;;;;;37.28;17.08;;;5.60;99.90;;;;;;5073375;28;20044;-54
2023/10/18 04:54:00;;;;;;;41.33;19.65;;;5.40;99.90;;;;;;5070793;28;20046;-55
2023/10/18 04:56:34;;;;;;;38.20;17.05;;;5.60;99.90;;;;;;5073204;28;20456;-55
2023/10/18 04:59:06;;;;;;;48.33;19.67;;;5.30;99.90;;;;;;5073221;28;20040;-54
2023/10/18 05:01:36;;;;;;;41.58;17.25;;;5.40;99.90;;;;;;5072932;28;20384;-56
2023/10/18 05:04:20;;;;;;;41.17;18.35;;;5.40;99.90;;;;;;5073627;28;20387;-54
2023/10/18 05:06:56;;;;;;;41.60;18.23;;;5.30;99.90;;;;;;5072122;28;20036;-56
2023/10/18 05:09:44;;;;;;;40.72;18.27;;;5.40;99.90;;;;;;5073652;28;20044;-55
2023/10/18 05:17:33;;;;;;;36.42;18.20;;;5.40;99.90;;;;;;5072439;28;20131;-55
2023/10/18 05:20:09;;;;;;;43.75;18.88;;;5.60;99.90;;;;;;5072823;28;20059;-55
2023/10/18 05:22:41;;;;;;;40.72;17.92;;;5.50;99.90;;;;;;5070329;28;20044;-55
2023/10/18 05:28:14;;;;;;;38.30;17.92;;;5.40;99.90;;;;;;5073177;28;20432;-51
2023/10/18 05:41:45;;;;;;;38.60;17.88;;;5.30;99.90;;;;;;5069583;28;20049;-54
2023/10/18 05:44:06;;;;;;;37.60;17.23;;;5.50;99.90;;;;;;5058309;28;20055;-56
2023/10/18 05:46:32;;;;;;;40.92;17.40;;;5.20;99.90;;;;;;5065846;28;20125;-54
2023/10/18 05:49:00;;;;;;;39.88;18.02;;;5.40;99.90;;;;;;5061730;28;20048;-54
2023/10/18 05:51:26;;;;;;;42.60;18.13;;;5.40;99.90;;;;;;5064128;28;20064;-55
2023/10/18 05:54:04;;;;;;;37.15;18.38;;;5.40;99.90;;;;;;5064906;28;20032;-55
2023/10/18 05:56:34;;;;;;;42.20;18.17;;;5.30;99.90;;;;;;5067108;28;20072;-54
2023/10/18 06:01:49;;;;;;;37.58;17.88;;;5.40;99.90;;;;;;5065414;28;20173;-53
2023/10/18 06:04:24;;;;;;;39.45;19.20;;;5.30;99.90;;;;;;5063796;28;20127;-55
2023/10/18 06:06:58;;;;;;;39.65;17.70;;;5.20;99.90;;;;;;5064838;28;20075;-54
2023/10/18 06:09:28;;;;;;;42.17;17.95;;;5.20;99.90;;;;;;5063796;28;20033;-54
2023/10/18 06:11:55;;;;;;;36.75;17.88;;;5.20;99.90;;;;;;5064531;28;20047;-54
2023/10/18 06:14:25;;;;;;;36.30;17.58;;;5.30;99.90;;;;;;5062970;28;20044;-55
2023/10/18 06:16:51;;;;;;;42.70;19.20;;;5.30;99.90;;;;;;5052255;28;20041;-53
2023/10/18 06:19:27;;;;;;;36.92;16.65;;;5.30;99.90;;;;;;5064890;28;20040;-53
2023/10/18 06:21:59;;;;;;;37.80;18.30;;;5.10;99.90;;;;;;5064254;28;20040;-56
2023/10/18 06:24:26;;;;;;;33.25;16.63;;;5.30;99.90;;;;;;5040324;28;20557;-52
2023/10/18 06:26:52;;;;;;;37.35;17.67;;;4.80;99.90;;;;;;5062212;28;20127;-52
2023/10/18 06:29:24;;;;;;;40.20;17.70;;;5.30;99.90;;;;;;5063445;28;20123;-53
2023/10/18 06:31:50;;;;;;;38.40;31.38;;;5.30;99.90;;;;;;5065640;28;20071;-55
2023/10/18 06:34:22;;;;;;;35.33;15.85;;;5.40;99.90;;;;;;5063176;28;20570;-51
2023/10/18 06:36:49;;;;;;;35.15;16.90;;;5.10;99.90;;;;;;5064768;28;20067;-54
2023/10/18 06:39:34;;;;;;;38.35;16.15;;;5.30;99.90;;;;;;5065927;28;20056;-54
2023/10/18 06:42:00;;;;;;;33.78;16.35;;;5.10;99.90;;;;;;5064861;28;20028;-54
2023/10/18 06:44:29;;;;;;;35.30;16.67;;;5.20;99.90;;;;;;5065614;28;20569;-51
2023/10/18 06:46:55;;;;;;;36.00;17.05;;;5.50;99.90;;;;;;5062482;28;20099;-54
2023/10/18 06:49:21;;;;;;;41.70;18.70;;;5.40;99.90;;;;;;5053899;28;20074;-55
2023/10/18 06:51:50;;;;;;;36.15;17.38;;;5.20;99.90;;;;;;5065450;28;20048;-55
2023/10/18 06:54:30;;;;;;;31.67;17.10;;;5.40;99.90;;;;;;5065134;28;20046;-54
2023/10/18 06:56:57;;;;;;;37.03;16.50;;;5.40;99.90;;;;;;5061970;28;20127;-53
2023/10/18 06:59:27;;;;;;;38.35;16.77;;;5.30;99.90;;;;;;5065001;28;20179;-54
2023/10/18 07:01:54;;;;;;;37.22;17.33;;;5.50;99.90;;;;;;5052188;28;20036;-53
2023/10/18 07:04:27;;;;;;;34.85;17.42;;;5.40;99.90;;;;;;5053787;28;20044;-54
2023/10/18 07:06:54;;;;;;;38.15;17.15;;;5.30;99.90;;;;;;5063061;28;20036;-53
2023/10/18 07:09:26;;;;;;;34.58;16.88;;;5.30;99.90;;;;;;5053029;28;20040;-54
2023/10/18 07:11:53;;;;;;;32.20;17.50;;;5.60;99.90;;;;;;5063184;28;20415;-54
2023/10/18 07:14:20;;;;;;;34.85;16.17;;;5.60;99.90;;;;;;5062971;28;20036;-55
2023/10/18 07:16:48;;;;;;;36.47;17.02;;;5.60;99.90;;;;;;5063329;28;20101;-56
2023/10/18 07:19:27;;;;;;;30.45;15.82;;;5.70;99.90;;;;;;5061929;28;20036;-52
2023/10/18 07:21:54;;;;;;;38.05;17.67;;;5.70;99.90;;;;;;5061000;28;20522;-53
2023/10/18 07:24:25;;;;;;;38.13;18.70;;;5.60;99.90;;;;;;5060194;28;20484;-53
2023/10/18 07:26:53;;;;;;;32.42;16.77;;;5.50;99.90;;;;;;5060215;28;20033;-53
2023/10/18 07:29:20;;;;;;;32.17;16.95;;;5.70;99.90;;;;;;5062777;28;20481;-55
2023/10/18 07:31:46;;;;;;;34.45;16.38;;;5.70;99.90;;;;;;5046615;28;20179;-55
2023/10/18 07:34:17;;;;;;;31.83;16.05;;;5.80;99.90;;;;;;5064348;28;20501;-53
2023/10/18 07:36:44;;;;;;;31.50;26.95;;;5.90;99.90;;;;;;5050591;28;20233;-54
2023/10/18 07:39:13;;;;;;;29.85;14.55;;;6.00;99.90;;;;;;5006791;28;20377;-55
2023/10/18 07:41:41;;;;;;;29.60;15.23;;;5.80;99.90;;;;;;5040595;28;20041;-55
2023/10/18 07:44:07;;;;;;;31.63;15.43;;;5.90;99.90;;;;;;5042025;28;20116;-52
2023/10/18 07:46:40;;;;;;;30.20;15.70;;;6.10;99.90;;;;;;5041464;28;20116;-56
2023/10/18 07:49:12;;;;;;;30.75;25.20;;;6.00;99.90;;;;;;5023539;28;20045;-54
2023/10/18 07:51:48;;;;;;;26.00;13.93;;;6.10;99.90;;;;;;5020675;28;20040;-57
2023/10/18 07:54:20;;;;;;;25.92;14.05;;;6.20;99.90;;;;;;5038232;28;20041;-54
2023/10/18 07:56:49;;;;;;;26.02;13.77;;;6.10;99.90;;;;;;5039716;28;20574;-55
2023/10/18 07:59:28;;;;;;;27.67;13.52;;;6.20;99.90;;;;;;5041007;28;20048;-53
2023/10/18 08:02:13;;;;;;;28.50;14.40;;;6.20;99.90;;;;;;5041306;28;20126;-53
2023/10/18 08:04:41;;;;;;;27.30;13.80;;;6.30;99.90;;;;;;5040887;28;20067;-53
2023/10/18 08:07:10;;;;;;;27.77;14.35;;;6.50;99.90;;;;;;5022564;28;20055;-53
2023/10/18 08:09:43;;;;;;;27.88;13.82;;;6.40;99.90;;;;;;5040068;28;20025;-53
2023/10/18 08:15:13;;;;;;;23.40;12.68;;;6.50;99.90;;;;;;5014685;28;20488;-56
2023/10/18 08:17:46;;;;;;;25.77;13.20;;;6.60;99.90;;;;;;5040421;28;20073;-56
2023/10/18 08:22:49;;;;;;;22.17;11.95;;;6.70;99.90;;;;;;5038691;28;20040;-56
2023/10/18 08:25:21;;;;;;;24.40;13.27;;;6.70;99.90;;;;;;5038555;28;20045;-55
2023/10/18 08:27:54;;;;;;;24.08;12.23;;;6.80;99.90;;;;;;5037141;28;20041;-56
2023/10/18 08:30:24;;;;;;;23.33;12.48;;;6.90;99.90;;;;;;5035603;28;20038;-55
2023/10/18 08:32:53;;;;;;;25.23;13.70;;;6.80;99.90;;;;;;5024186;28;20041;-55
2023/10/18 08:35:20;;;;;;;23.42;12.15;;;6.90;99.90;;;;;;5026084;28;20060;-55
2023/10/18 08:37:46;;;;;;;23.20;11.60;;;7.10;99.90;;;;;;5034468;28;20084;-53
2023/10/18 08:40:27;;;;;;;21.52;11.98;;;7.00;99.90;;;;;;5039902;28;20036;-55
2023/10/18 08:43:05;;;;;;;22.65;12.70;;;7.10;99.90;;;;;;5045129;28;20476;-55
2023/10/18 08:45:36;;;;;;;20.80;12.00;;;7.20;99.90;;;;;;5042948;28;20534;-55
2023/10/18 08:48:11;;;;;;;22.27;12.35;;;7.20;99.90;;;;;;5043518;28;20120;-56
2023/10/18 08:50:40;;;;;;;19.67;10.98;;;7.30;99.90;;;;;;5044763;28;20485;-55
2023/10/18 08:53:07;;;;;;;22.42;10.75;;;7.30;99.90;;;;;;5045409;28;20064;-55
2023/10/18 08:55:45;;;;;;;21.15;12.20;;;7.50;99.90;;;;;;5026951;28;20037;-54
2023/10/18 08:58:22;;;;;;;21.73;10.95;;;7.40;99.90;;;;;;5044331;28;20029;-55
2023/10/18 09:03:23;;;;;;;18.55;10.48;;;7.50;99.90;;;;;;5045420;28;20142;-56
2023/10/18 09:05:52;;;;;;;20.40;11.57;;;7.60;99.90;;;;;;5042999;28;20047;-57
2023/10/18 09:08:23;;;;;;;22.58;12.27;;;7.60;99.90;;;;;;5026946;28;20176;-55
2023/10/18 09:10:54;;;;;;;20.70;11.35;;;7.60;99.90;;;;;;5024176;28;20045;-56
2023/10/18 09:15:54;;;;;;;17.25;9.95;;;7.70;99.90;;;;;;5044619;28;20128;-54
2023/10/18 09:18:21;;;;;;;20.75;11.30;;;7.80;99.90;;;;;;5043583;28;20049;-56
2023/10/18 09:20:48;;;;;;;19.85;10.95;;;7.80;99.90;;;;;;5043279;28;20403;-57
2023/10/18 09:23:21;;;;;;;20.40;11.00;;;7.90;99.90;;;;;;5038207;28;20438;-57
2023/10/18 09:26:00;;;;;;;22.10;12.27;;;7.90;99.90;;;;;;5043169;28;20052;-55
2023/10/18 09:28:25;;;;;;;20.15;10.60;;;8.00;99.90;;;;;;5043824;28;20033;-54
2023/10/18 09:31:10;;;;;;;20.88;10.88;;;8.00;99.90;;;;;;5044304;28;20041;-54
2023/10/18 09:33:38;;;;;;;20.60;10.77;;;8.00;99.90;;;;;;5043941;28;20112;-59
2023/10/18 09:36:19;;;;;;;18.27;10.50;;;8.10;99.90;;;;;;5043148;28;23479;-56
2023/10/18 09:38:48;;;;;;;18.17;10.13;;;8.10;99.90;;;;;;5025277;28;20087;-61
2023/10/18 09:41:15;;;;;;;19.10;11.05;;;8.20;99.90;;;;;;5042624;28;20090;-56
2023/10/18 09:43:42;;;;;;;20.77;10.88;;;8.20;99.90;;;;;;5042958;28;20029;-55
2023/10/18 09:46:08;;;;;;;18.00;15.35;;;8.30;99.90;;;;;;5042244;28;20037;-55
2023/10/18 09:48:41;;;;;;;18.58;10.05;;;8.30;99.90;;;;;;5041849;28;20037;-55
2023/10/18 09:51:08;;;;;;;16.40;10.60;;;8.40;99.90;;;;;;5024688;28;20071;-54
2023/10/18 09:53:54;;;;;;;18.52;10.73;;;8.40;99.90;;;;;;5042720;28;20112;-52
2023/10/18 09:56:24;;;;;;;17.92;10.13;;;8.50;99.90;;;;;;5042679;28;20040;-55
2023/10/18 09:58:51;;;;;;;17.83;9.40;;;8.60;99.90;;;;;;5033266;28;20068;-55
2023/10/18 10:02:00;;;;;;;19.25;10.45;;;8.50;99.90;;;;;;5025512;28;20031;-55
2023/10/18 10:04:09;;;;;;;16.55;10.60;;;8.60;99.90;;;;;;5033158;28;20037;-54
2023/10/18 10:06:35;;;;;;;18.25;10.43;;;8.70;99.90;;;;;;5043322;28;20091;-55
2023/10/18 10:11:43;;;;;;;15.70;13.27;;;8.90;99.90;;;;;;5042846;28;20048;-57
2023/10/18 10:14:16;;;;;;;15.23;9.48;;;8.90;99.90;;;;;;5043723;28;20416;-56
2023/10/18 10:17:00;;;;;;;16.08;9.02;;;9.00;99.90;;;;;;5043505;28;20064;-55
2023/10/18 10:19:29;;;;;;;17.65;8.60;;;9.00;99.90;;;;;;5044323;28;20041;-54
2023/10/18 10:22:04;;;;;;;15.27;9.32;;;9.10;99.90;;;;;;5042402;28;20412;-55
2023/10/18 10:24:50;;;;;;;16.08;8.85;;;9.10;99.90;;;;;;5042581;28;20037;-54
2023/10/18 10:27:27;;;;;;;17.05;9.68;;;9.20;99.90;;;;;;5040976;28;20055;-54
2023/10/18 10:29:56;;;;;;;19.95;9.60;;;9.30;99.90;;;;;;5045009;28;20225;-56
2023/10/18 10:32:24;;;;;;;16.25;9.63;;;9.30;99.90;;;;;;5047715;28;20036;-55
2023/10/18 10:35:15;;;;;;;14.73;12.60;;;9.30;99.90;;;;;;5045353;28;20126;-56
2023/10/18 10:38:13;;;;;;;14.80;12.38;;;9.30;99.90;;;;;;5045919;28;20114;-56
2023/10/18 10:40:43;;;;;;;15.90;9.18;;;9.30;99.90;;;;;;5047800;28;20049;-55
2023/10/18 10:43:10;;;;;;;19.10;9.35;;;9.40;99.90;;;;;;5048506;28;20037;-55
2023/10/18 10:48:18;;;;;;;14.10;8.70;;;9.50;99.90;;;;;;5050873;28;20049;-56
2023/10/18 10:50:52;;;;;;;18.50;9.88;;;9.50;99.90;;;;;;5031491;28;20079;-56
2023/10/18 10:53:34;;;;;;;13.43;12.02;;;9.50;99.90;;;;;;5051026;28;20390;-56
2023/10/18 10:56:39;;;;;;;14.07;8.65;;;9.70;99.90;;;;;;5049399;28;20075;-57
2023/10/18 11:04:27;;;;;;;14.10;8.38;;;9.90;99.90;;;;;;5049805;28;20048;-55
2023/10/18 11:07:00;;;;;;;13.95;8.60;;;10.00;99.90;;;;;;5047449;28;20037;-56
2023/10/18 11:09:38;;;;;;;12.77;7.78;;;10.00;99.90;;;;;;5049276;28;20041;-57
2023/10/18 11:12:10;;;;;;;13.80;11.07;;;10.20;99.90;;;;;;5045287;28;20048;-55
2023/10/18 11:14:36;;;;;;;14.65;8.35;;;10.30;99.90;;;;;;5051216;28;20152;-56
2023/10/18 11:17:17;;;;;;;12.15;7.90;;;10.40;99.90;;;;;;5050725;28;20095;-56
2023/10/18 11:19:44;;;;;;;13.13;8.85;;;10.40;99.90;;;;;;5032646;28;20053;-55
2023/10/18 11:22:19;;;;;;;13.52;8.65;;;10.50;99.90;;;;;;5050815;28;20552;-56
2023/10/18 11:24:49;;;;;;;14.43;8.73;;;10.60;99.90;;;;;;5050233;28;20037;-56
2023/10/18 11:27:21;;;;;;;13.10;7.63;;;10.80;99.90;;;;;;5050675;28;20425;-58
2023/10/18 11:29:47;;;;;;;12.70;8.45;;;10.90;99.90;;;;;;5050626;28;20107;-55
2023/10/18 11:32:27;;;;;;;15.00;8.98;;;10.90;99.90;;;;;;5050257;28;20037;-56
2023/10/18 11:35:09;;;;;;;11.93;7.90;;;11.10;99.90;;;;;;5050305;28;20155;-57
2023/10/18 11:37:38;;;;;;;12.70;8.88;;;11.20;99.90;;;;;;5049657;28;20053;-57
2023/10/18 11:40:21;;;;;;;13.23;7.68;;;11.40;99.90;;;;;;5049959;28;20052;-55
2023/10/18 11:43:05;;;;;;;13.95;8.50;;;11.60;99.90;;;;;;5050116;28;20480;-57
2023/10/18 11:45:31;;;;;;;15.73;8.57;;;11.80;99.90;;;;;;5050216;28;20037;-56
2023/10/18 11:47:59;;;;;;;11.95;8.25;;;12.10;99.90;;;;;;5049828;28;20041;-56
2023/10/18 11:50:37;;;;;;;13.10;8.52;;;12.30;99.90;;;;;;5049950;28;20033;-56
2023/10/18 11:53:12;;;;;;;11.38;7.85;;;12.50;99.90;;;;;;5050401;28;20112;-57
2023/10/18 11:56:11;;;;;;;12.10;8.02;;;12.70;99.90;;;;;;5049682;28;20044;-56
2023/10/18 11:58:41;;;;;;;12.55;7.80;;;12.80;99.90;;;;;;5049338;28;20045;-56
2023/10/18 12:01:19;;;;;;;12.20;8.57;;;12.90;99.90;;;;;;5049710;28;20049;-56
2023/10/18 12:03:48;;;;;;;12.98;7.78;;;13.00;99.90;;;;;;5050265;28;20048;-55
2023/10/18 12:06:13;;;;;;;11.65;7.15;;;12.90;99.90;;;;;;5050254;28;20037;-55
2023/10/18 12:11:29;;;;;;;10.63;6.93;;;12.80;99.90;;;;;;4990820;28;20059;-56
2023/10/18 12:13:55;;;;;;;10.65;7.28;;;12.80;99.90;;;;;;5047834;28;20524;-54
2023/10/18 12:16:22;;;;;;;10.95;7.40;;;12.90;99.90;;;;;;5050507;28;20044;-56
2023/10/18 12:18:48;;;;;;;11.93;7.47;;;13.00;99.90;;;;;;5046734;28;20043;-56
2023/10/18 12:21:14;;;;;;;11.88;7.63;;;13.10;99.90;;;;;;5049945;28;20044;-56
2023/10/18 12:23:40;;;;;;;12.40;7.57;;;13.10;99.90;;;;;;5040339;28;20049;-56
2023/10/18 12:26:06;;;;;;;9.63;7.65;;;13.20;99.90;;;;;;5033328;28;20051;-57
2023/10/18 12:28:41;;;;;;;11.38;7.00;;;13.30;99.90;;;;;;4998149;28;20448;-55
2023/10/18 12:31:12;;;;;;;11.57;7.55;;;13.30;99.90;;;;;;5053320;28;20557;-57
2023/10/18 12:33:40;;;;;;;11.75;7.70;;;13.40;99.90;;;;;;5018519;28;20045;-57
2023/10/18 12:36:21;;;;;;;13.60;7.55;;;13.40;99.90;;;;;;5052205;28;20052;-56
2023/10/18 12:38:47;;;;;;;10.15;7.18;;;13.50;99.90;;;;;;5052388;28;20124;-57
2023/10/18 12:43:45;;;;;;;12.02;7.40;;;13.80;99.90;;;;;;5053241;28;20037;-56
2023/10/18 12:46:17;;;;;;;11.85;6.97;;;13.90;99.90;;;;;;5052708;28;20412;-56
2023/10/18 12:48:43;;;;;;;11.90;7.63;;;13.90;99.90;;;;;;5051799;28;20041;-56
2023/10/18 12:51:12;;;;;;;9.80;6.85;;;13.90;99.90;;;;;;5052502;28;20499;-56
2023/10/18 12:53:46;;;;;;;9.85;7.20;;;13.80;99.90;;;;;;5052055;28;20041;-55
2023/10/18 12:56:25;;;;;;;9.98;6.55;;;13.80;99.90;;;;;;5051915;28;20037;-56
2023/10/18 13:04:07;;;;;;;11.15;6.90;;;14.00;99.90;;;;;;5053080;28;20131;-56
2023/10/18 13:06:46;;;;;;;10.13;6.75;;;14.00;99.90;;;;;;5048774;28;20052;-56
2023/10/18 13:09:19;;;;;;;9.50;6.78;;;14.20;99.90;;;;;;5034611;28;20049;-57
2023/10/18 13:12:08;;;;;;;10.23;6.75;;;14.20;99.90;;;;;;5046869;28;20366;-56
2023/10/18 13:14:34;;;;;;;10.00;6.75;;;14.20;99.90;;;;;;5036382;28;20055;-55
2023/10/18 13:17:05;;;;;;;10.75;6.93;;;14.30;99.90;;;;;;5043761;28;20456;-58
2023/10/18 13:19:31;;;;;;;10.02;6.30;;;14.40;99.90;;;;;;5050660;28;20048;-57
2023/10/18 13:21:57;;;;;;;10.18;6.97;;;14.40;99.90;;;;;;5051665;28;20040;-57
2023/10/18 13:26:52;;;;;;;10.00;7.03;;;14.40;99.90;;;;;;5050108;28;20045;-56
2023/10/18 13:31:46;;;;;;;9.05;6.53;;;14.20;99.90;;;;;;5052681;28;20670;-56
2023/10/18 13:34:21;;;;;;;9.50;6.97;;;14.10;99.90;;;;;;5052639;28;20044;-56
2023/10/18 13:36:47;;;;;;;9.70;7.13;;;14.20;99.90;;;;;;5052197;28;20032;-55
2023/10/18 13:39:14;;;;;;;10.07;6.43;;;14.20;99.90;;;;;;5051007;28;20056;-56
2023/10/18 13:41:41;;;;;;;9.80;5.95;;;14.10;99.90;;;;;;5052280;28;20045;-57
2023/10/18 13:44:08;;;;;;;14.20;6.35;;;14.10;99.90;;;;;;5052582;28;20187;-57
2023/10/18 13:46:36;;;;;;;11.35;7.15;;;14.10;99.90;;;;;;5049432;28;20041;-55
2023/10/18 13:49:03;;;;;;;12.73;7.05;;;14.10;99.90;;;;;;5036361;28;20052;-55
2023/10/18 13:51:34;;;;;;;10.98;6.07;;;14.10;99.90;;;;;;5052446;28;20041;-56
2023/10/18 13:54:01;;;;;;;10.55;6.07;;;14.10;99.90;;;;;;5052516;28;20051;-57
2023/10/18 13:56:26;;;;;;;10.02;6.22;;;14.00;99.90;;;;;;5052531;28;20052;-56
2023/10/18 13:58:52;;;;;;;9.52;6.32;;;14.00;99.90;;;;;;5052225;28;20040;-58
2023/10/18 14:01:18;;;;;;;8.80;6.47;;;13.90;99.90;;;;;;5052388;28;20112;-56
2023/10/18 14:03:47;;;;;;;11.55;6.28;;;13.90;99.90;;;;;;5052625;28;20187;-55
2023/10/18 14:06:14;;;;;;;10.48;6.00;;;13.80;99.90;;;;;;5052181;28;20045;-57